Accueil
METAR-TAF:

METAR-TAF

Aéroports :

Aéroport de Londres-Southend

Londres-Southend, Angleterre

latitude: 51-34N, longitude: 000-42E, altitude: 15 m

Observation

Le bulletin a été fait il y a 20 minutes, à 04:20 UTC
Vent 10 kt de nord
Température 8°C
Humidité 76%
Pression 1033 hPa
Visibilité 10 km ou plus
Quelques nuages à une hauteur de 3500 ft

METAR: EGMC 220420Z 35010KT 9999 FEW035 08/04 Q1033

Heure: 05:40 (04:40 UTC)

Prévision

Le bulletin a été fait il y a 2 heures et 44 minutes, à 01:56 UTC
Prévision valable du 22 à 03 UTC au 22 à 12 UTC
Vent 12 kt de nord
Visibilité 10 km ou plus
Quelques nuages à une hauteur de 3000 ft

TAF: EGMC 220156Z 2203/2212 36012KT 9999 FEW030

Observations et prévisions météorologiques de plus de 4000 aéroports (messages METAR et TAF).

Les stations disponibles sont représentées par des disques jaunes et rouges sur la carte.

Passer la souris dessus pour voir le nom de la station.

Cliquer dessus pour voir les observations et prévisions météorologiques.

Pour changer de carte: cliquez sur les boutons verts avec une croix noire pour zoomer, sur le bouton vert avec un tiret pour effectuer un zoom arrière, ou sur les flèches vertes pour les cartes adjacentes.


METAR-TAF: